Terminal Aerodrome Forecast
Issued by NWS Portland, ME

Home | Current Version | Previous Version | Text Only | Print | Product List | Glossary On
Versions: 1 2 3 4 5 6 7 8 9 10 11 12 13 14 15 16 17 18 19 20 21
000
FTUS41 KGYX 280535
TAFCON
TAF
KCON 280535Z 2806/2906 VRB03KT P6SM BKN100
      TEMPO 2808/2812 1/2SM FG VV002
     FM281300 28005KT P6SM FEW050 SCT100=

USA.gov is the U.S. government's official web portal to all federal, state and local government web resources and services.